Archival Weather

Heathrow

London, United Kingdom (EGLL)

Report from: Friday, June 21, 2024 5:20 AM BST
Current time: Friday, July 19, 2024 2:42 AM BST

Current weather – Weather history – Daily summaries
Weather forecast

Temperature13.0°C (55.4°F)
Dew point11.0°C (51.8°F)
Winds 3 kts (1.5 m/s, 3.5 mph) Vrb
Winds variableWinds variable from Southwest (220°) to West (280°)
Visibility6.2 mi. (10 km)
Clouds Sky clear
Altimeter29.97 in.Hg (1015 mB)
Relative humidity88 %
Density altitude-112 ft. (-34 m)
Remarks Fully automated report
Corrected report
No clouds detected
No significant changes expected in the next two hours
Flight conditions Visual Meteorological Conditions
Raw dataCOR EGLL 210420Z AUTO 24003KT 220V280 9999 NCD 13/11 Q1015 NOSIG
An error has occurred. This application may no longer respond until reloaded. Reload 🗙